createdAt,value
2019-02-20T00:01:30.203Z,6.66
2019-02-20T00:03:58.467Z,6.66
2019-02-20T00:06:26.744Z,6.62
2019-02-20T00:08:55.017Z,6.62
2019-02-20T00:11:23.295Z,6.61
2019-02-20T00:13:51.605Z,6.63
2019-02-20T00:16:19.861Z,6.63
2019-02-20T00:18:48.139Z,6.58
2019-02-20T00:21:16.413Z,6.58
2019-02-20T00:23:44.684Z,6.60
2019-02-20T00:26:12.963Z,6.64
2019-02-20T00:28:41.238Z,6.62
2019-02-20T00:31:09.507Z,6.63
2019-02-20T00:33:37.780Z,6.56
2019-02-20T00:36:06.046Z,6.60
2019-02-20T00:38:34.344Z,6.63
2019-02-20T00:41:02.618Z,6.64
2019-02-20T00:43:30.892Z,6.63
2019-02-20T00:46:09.839Z,6.62
2019-02-20T00:48:39.729Z,6.62
2019-02-20T00:51:12.023Z,6.58
2019-02-20T00:53:42.126Z,6.62
2019-02-20T00:56:10.360Z,6.59
2019-02-20T00:58:38.635Z,6.58
2019-02-20T01:01:06.914Z,6.62
2019-02-20T01:03:35.177Z,6.61
2019-02-20T01:06:04.974Z,6.56
2019-02-20T01:08:33.303Z,6.55
2019-02-20T01:11:01.599Z,6.52
2019-02-20T01:13:29.865Z,6.51
2019-02-20T01:15:58.147Z,6.43
2019-02-20T01:18:26.436Z,6.40
2019-02-20T01:20:54.689Z,6.46
2019-02-20T01:23:22.968Z,6.39
2019-02-20T01:25:51.218Z,6.41
2019-02-20T01:28:19.502Z,6.38
2019-02-20T01:30:47.759Z,6.38
2019-02-20T01:33:16.619Z,6.41
2019-02-20T01:35:44.868Z,6.36
2019-02-20T01:38:13.197Z,6.44
2019-02-20T01:40:41.467Z,6.42
2019-02-20T01:43:09.735Z,6.42
2019-02-20T01:45:38.017Z,6.39
2019-02-20T01:48:06.298Z,6.40
2019-02-20T01:50:34.555Z,6.40
2019-02-20T01:53:09.989Z,6.36
2019-02-20T01:55:32.811Z,6.37
2019-02-20T01:58:01.079Z,6.36
2019-02-20T02:00:29.366Z,6.40
2019-02-20T02:02:57.656Z,6.40
2019-02-20T02:05:25.939Z,6.42
2019-02-20T02:07:54.216Z,6.45
2019-02-20T02:10:22.476Z,6.44
2019-02-20T02:12:50.743Z,6.44
2019-02-20T02:15:20.713Z,6.44
2019-02-20T02:17:49.048Z,6.45
2019-02-20T02:20:17.319Z,6.45
2019-02-20T02:22:45.592Z,6.45
2019-02-20T02:25:13.873Z,6.51
2019-02-20T02:27:42.151Z,6.49
2019-02-20T02:30:12.736Z,6.51
2019-02-20T02:32:41.010Z,6.48
2019-02-20T02:35:09.304Z,6.56
2019-02-20T02:37:37.566Z,6.56
2019-02-20T02:40:06.794Z,6.49
2019-02-20T02:42:35.047Z,6.49
2019-02-20T02:45:03.336Z,6.52
2019-02-20T02:47:31.597Z,6.52
2019-02-20T02:49:59.862Z,6.49
2019-02-20T02:52:28.142Z,6.50
2019-02-20T02:54:56.408Z,6.47
2019-02-20T02:57:24.691Z,6.45
2019-02-20T02:59:52.953Z,6.42
2019-02-20T03:02:21.236Z,6.47
2019-02-20T03:04:49.501Z,6.44
2019-02-20T03:07:17.761Z,6.40
2019-02-20T03:09:46.399Z,6.31
2019-02-20T03:12:14.669Z,6.32
2019-02-20T03:14:42.927Z,6.27
2019-02-20T03:17:11.202Z,6.34
2019-02-20T03:19:39.482Z,6.35
2019-02-20T03:22:07.741Z,6.36
2019-02-20T03:24:36.020Z,6.24
2019-02-20T03:27:04.301Z,6.28
2019-02-20T03:29:32.591Z,6.31
2019-02-20T03:32:00.884Z,6.34
2019-02-20T03:34:29.181Z,6.37
2019-02-20T03:36:57.436Z,6.27
2019-02-20T03:39:25.712Z,6.27
2019-02-20T03:41:53.986Z,6.29
2019-02-20T03:44:22.263Z,6.31
2019-02-20T03:46:50.532Z,6.31
2019-02-20T03:49:18.794Z,6.24
2019-02-20T03:51:47.058Z,6.28
2019-02-20T03:54:15.329Z,6.23
2019-02-20T03:56:43.595Z,6.24
2019-02-20T03:59:11.864Z,6.21
2019-02-20T04:01:40.143Z,6.26
2019-02-20T04:04:08.426Z,6.20
2019-02-20T04:06:36.694Z,6.22
2019-02-20T04:09:05.933Z,6.18
2019-02-20T04:11:34.232Z,6.12
2019-02-20T04:14:02.501Z,6.16
2019-02-20T04:16:30.771Z,6.13
2019-02-20T04:18:59.038Z,6.12
2019-02-20T04:21:27.317Z,6.16
2019-02-20T04:24:02.440Z,6.18
2019-02-20T04:26:25.597Z,6.16
2019-02-20T04:28:53.851Z,6.12
2019-02-20T04:31:22.120Z,6.13
2019-02-20T04:33:50.405Z,6.15
2019-02-20T04:36:18.721Z,6.18
2019-02-20T04:38:46.954Z,6.16
2019-02-20T04:41:15.240Z,6.10
2019-02-20T04:43:43.927Z,6.07
2019-02-20T04:46:12.193Z,6.02
2019-02-20T04:48:40.485Z,6.08
2019-02-20T04:51:08.745Z,6.04
2019-02-20T04:53:37.009Z,6.13
2019-02-20T04:56:05.316Z,6.06
2019-02-20T04:58:33.572Z,6.00
2019-02-20T05:01:01.839Z,6.01
2019-02-20T05:03:30.126Z,6.00
2019-02-20T05:05:58.387Z,5.98
2019-02-20T05:08:26.679Z,5.98
2019-02-20T05:10:54.962Z,5.94
2019-02-20T05:13:23.249Z,5.99
2019-02-20T05:15:51.493Z,5.96
2019-02-20T05:18:19.763Z,5.95
2019-02-20T05:20:48.028Z,5.98
2019-02-20T05:23:16.308Z,5.94
2019-02-20T05:25:44.560Z,5.93
2019-02-20T05:28:12.844Z,5.92
2019-02-20T05:30:41.107Z,5.92
2019-02-20T05:33:09.409Z,5.94
2019-02-20T05:35:37.649Z,5.96
2019-02-20T05:38:05.909Z,5.97
2019-02-20T05:40:34.170Z,5.95
2019-02-20T05:43:02.456Z,6.02
2019-02-20T05:45:30.725Z,6.01
2019-02-20T05:47:58.985Z,6.06
2019-02-20T05:50:27.262Z,6.03
2019-02-20T05:52:55.539Z,5.99
2019-02-20T05:55:23.800Z,5.97
2019-02-20T05:57:52.086Z,5.95
2019-02-20T06:00:20.353Z,6.01
2019-02-20T06:02:48.620Z,5.93
2019-02-20T06:05:16.889Z,5.97
2019-02-20T06:07:45.145Z,5.92
2019-02-20T06:10:13.444Z,5.95
2019-02-20T06:12:41.691Z,5.93
2019-02-20T06:15:10.318Z,5.91
2019-02-20T06:17:38.587Z,5.83
2019-02-20T06:20:09.006Z,5.88
2019-02-20T06:22:37.273Z,5.90
2019-02-20T06:25:05.771Z,5.82
2019-02-20T06:27:34.047Z,5.85
2019-02-20T06:30:02.505Z,5.84
2019-02-20T06:32:30.768Z,5.89
2019-02-20T06:34:59.031Z,5.84
2019-02-20T06:37:27.303Z,5.91
2019-02-20T06:39:55.592Z,5.82
2019-02-20T06:42:23.875Z,5.84
2019-02-20T06:44:52.133Z,5.88
2019-02-20T06:47:20.412Z,5.86
2019-02-20T06:49:48.683Z,5.91
2019-02-20T06:52:16.954Z,5.93
2019-02-20T06:54:53.690Z,5.90
2019-02-20T06:57:15.217Z,5.92
2019-02-20T06:59:43.479Z,5.96
2019-02-20T07:02:11.829Z,6.00
2019-02-20T07:04:40.116Z,5.92
2019-02-20T07:07:20.345Z,6.01
2019-02-20T07:10:13.860Z,6.05
2019-02-20T07:12:48.202Z,5.98
2019-02-20T07:15:37.273Z,5.96
2019-02-20T07:18:20.299Z,6.02
2019-02-20T07:21:01.497Z,5.96
2019-02-20T07:23:44.755Z,6.00
2019-02-20T07:26:21.729Z,6.06
2019-02-20T07:29:10.989Z,6.00
2019-02-20T07:31:39.268Z,6.02
2019-02-20T07:34:07.546Z,6.03
2019-02-20T07:36:35.815Z,6.06
2019-02-20T07:39:05.531Z,6.16
2019-02-20T07:41:33.803Z,6.18
2019-02-20T07:44:02.083Z,6.14
2019-02-20T07:46:30.361Z,6.18
2019-02-20T07:48:58.641Z,6.14
2019-02-20T07:51:26.896Z,6.17
2019-02-20T07:53:55.163Z,6.18
2019-02-20T07:56:24.165Z,6.26
2019-02-20T07:58:52.484Z,6.22
2019-02-20T08:01:20.748Z,6.26
2019-02-20T08:03:49.023Z,6.25
2019-02-20T08:06:17.288Z,6.28
2019-02-20T08:08:45.577Z,6.38
2019-02-20T08:11:13.837Z,6.47
2019-02-20T08:13:42.108Z,6.50
2019-02-20T08:16:10.372Z,6.55
2019-02-20T08:18:38.627Z,6.50
2019-02-20T08:21:06.890Z,6.61
2019-02-20T08:23:35.155Z,6.62
2019-02-20T08:26:03.456Z,6.61
2019-02-20T08:28:31.717Z,6.61
2019-02-20T08:31:00.006Z,6.61
2019-02-20T08:33:28.284Z,6.73
2019-02-20T08:35:56.557Z,6.89
2019-02-20T08:38:24.823Z,6.84
2019-02-20T08:40:53.085Z,6.92
2019-02-20T08:43:21.357Z,6.88
2019-02-20T08:45:49.635Z,6.93
2019-02-20T08:48:17.908Z,6.88
2019-02-20T08:50:46.160Z,6.98
2019-02-20T08:53:14.441Z,6.90
2019-02-20T08:55:42.722Z,7.00
2019-02-20T08:58:10.984Z,7.02
2019-02-20T09:00:39.251Z,7.04
2019-02-20T09:03:07.516Z,7.09
2019-02-20T09:05:35.791Z,7.08
2019-02-20T09:08:04.077Z,7.08
2019-02-20T09:10:32.330Z,7.08
2019-02-20T09:13:00.601Z,7.14
2019-02-20T09:15:28.865Z,7.10
2019-02-20T09:17:57.144Z,7.20
2019-02-20T09:20:25.412Z,7.15
2019-02-20T09:22:53.683Z,7.16
2019-02-20T09:25:21.949Z,7.22
2019-02-20T09:27:50.212Z,7.22
2019-02-20T09:30:18.474Z,7.27
2019-02-20T09:32:46.772Z,7.37
2019-02-20T09:35:14.999Z,7.34
2019-02-20T09:37:43.277Z,7.37
2019-02-20T09:40:14.458Z,7.46
2019-02-20T09:42:43.973Z,7.38
2019-02-20T09:45:12.245Z,7.41
2019-02-20T09:47:40.513Z,7.40
2019-02-20T09:50:09.044Z,7.48
2019-02-20T09:52:37.330Z,7.57
2019-02-20T09:55:10.667Z,7.35
2019-02-20T09:57:38.925Z,7.35
2019-02-20T10:00:10.352Z,7.39
2019-02-20T10:02:38.645Z,7.37
2019-02-20T10:05:08.847Z,7.44
2019-02-20T10:07:37.109Z,7.52
2019-02-20T10:10:07.982Z,7.42
2019-02-20T10:12:36.269Z,7.47
2019-02-20T10:15:07.551Z,7.44
2019-02-20T10:17:35.825Z,7.50
2019-02-20T10:20:05.535Z,7.53
2019-02-20T10:22:33.799Z,7.52
2019-02-20T10:25:02.089Z,7.54
2019-02-20T10:27:30.370Z,7.67
2019-02-20T10:29:58.667Z,7.78
2019-02-20T10:32:26.925Z,7.72
2019-02-20T10:34:55.184Z,7.85
2019-02-20T10:37:23.433Z,7.87
2019-02-20T10:39:51.692Z,7.83
2019-02-20T10:42:19.951Z,7.64
2019-02-20T10:44:48.215Z,7.67
2019-02-20T10:47:16.478Z,7.80
2019-02-20T10:49:44.748Z,7.80
2019-02-20T10:52:13.017Z,7.82
2019-02-20T10:54:41.288Z,7.76
2019-02-20T10:57:09.544Z,7.86
2019-02-20T10:59:37.799Z,7.74
2019-02-20T11:02:06.066Z,7.91
2019-02-20T11:04:34.328Z,7.89
2019-02-20T11:07:02.586Z,7.93
2019-02-20T11:09:31.906Z,8.09
2019-02-20T11:12:00.181Z,8.13
2019-02-20T11:14:28.445Z,8.13
2019-02-20T11:16:56.709Z,8.13
2019-02-20T11:19:24.983Z,8.14
2019-02-20T11:21:53.264Z,8.12
2019-02-20T11:24:21.529Z,8.05
2019-02-20T11:26:54.291Z,8.09
2019-02-20T11:29:19.780Z,8.12
2019-02-20T11:31:48.042Z,8.14
2019-02-20T11:34:16.307Z,8.31
2019-02-20T11:36:44.570Z,8.52
2019-02-20T11:39:12.832Z,8.37
2019-02-20T11:41:41.092Z,8.52
2019-02-20T11:44:09.359Z,8.55
2019-02-20T11:46:37.634Z,8.35
2019-02-20T11:49:05.911Z,8.35
2019-02-20T11:51:34.190Z,8.35
2019-02-20T11:54:02.459Z,8.21
2019-02-20T11:56:30.732Z,8.15
2019-02-20T11:58:59.006Z,8.11
2019-02-20T12:01:27.490Z,8.06
2019-02-20T12:03:55.697Z,8.12
2019-02-20T12:06:23.960Z,8.20
2019-02-20T12:08:52.230Z,8.34
2019-02-20T12:11:20.492Z,8.46
2019-02-20T12:13:48.765Z,8.59
2019-02-20T12:16:17.029Z,8.40
2019-02-20T12:18:45.387Z,8.60
2019-02-20T12:21:13.619Z,8.60
2019-02-20T12:23:41.891Z,8.70
2019-02-20T12:26:10.164Z,8.71
2019-02-20T12:28:38.435Z,8.61
2019-02-20T12:31:06.692Z,8.73
2019-02-20T12:33:34.958Z,8.56
2019-02-20T12:36:03.228Z,8.61
2019-02-20T12:38:31.513Z,8.64
2019-02-20T12:40:59.778Z,8.53
2019-02-20T12:43:28.052Z,8.72
2019-02-20T12:45:56.331Z,8.61
2019-02-20T12:48:24.621Z,8.69
2019-02-20T12:50:52.883Z,8.83
2019-02-20T12:53:21.157Z,8.84
2019-02-20T12:55:49.417Z,8.84
2019-02-20T12:58:17.742Z,8.95
2019-02-20T13:00:46.005Z,8.77
2019-02-20T13:03:14.268Z,8.87
2019-02-20T13:05:42.572Z,9.06
2019-02-20T13:08:10.826Z,8.94
2019-02-20T13:10:39.087Z,9.08
2019-02-20T13:13:07.446Z,9.22
2019-02-20T13:15:35.716Z,8.97
2019-02-20T13:18:03.967Z,8.92
2019-02-20T13:20:32.233Z,8.88
2019-02-20T13:23:00.513Z,8.94
2019-02-20T13:25:28.756Z,9.05
2019-02-20T13:27:57.015Z,9.24
2019-02-20T13:30:25.275Z,9.23
2019-02-20T13:32:53.539Z,9.25
2019-02-20T13:35:21.807Z,9.37
2019-02-20T13:37:50.108Z,9.24
2019-02-20T13:40:18.356Z,9.18
2019-02-20T13:42:46.590Z,8.99
2019-02-20T13:45:14.852Z,8.92
2019-02-20T13:47:43.116Z,9.02
2019-02-20T13:50:13.020Z,8.98
2019-02-20T13:52:41.759Z,9.05
2019-02-20T13:55:10.023Z,9.08
2019-02-20T13:57:38.292Z,9.17
2019-02-20T14:00:09.742Z,9.29
2019-02-20T14:02:37.991Z,9.23
2019-02-20T14:05:07.993Z,9.12
2019-02-20T14:07:36.297Z,8.94
2019-02-20T14:10:10.026Z,9.03
2019-02-20T14:12:38.303Z,9.01
2019-02-20T14:15:08.791Z,8.90
2019-02-20T14:17:37.058Z,8.90
2019-02-20T14:20:08.150Z,8.95
2019-02-20T14:22:36.495Z,8.88
2019-02-20T14:25:07.072Z,8.64
2019-02-20T14:27:35.375Z,8.76
2019-02-20T14:30:04.314Z,8.77
2019-02-20T14:32:32.563Z,8.83
2019-02-20T14:35:00.841Z,8.85
2019-02-20T14:37:29.083Z,9.00
2019-02-20T14:39:58.162Z,9.13
2019-02-20T14:42:26.411Z,9.25
2019-02-20T14:44:54.689Z,9.31
2019-02-20T14:47:22.953Z,9.21
2019-02-20T14:49:51.217Z,9.21
2019-02-20T14:52:19.491Z,9.24
2019-02-20T14:54:47.748Z,9.19
2019-02-20T14:57:19.612Z,9.07
2019-02-20T14:59:46.259Z,9.04
2019-02-20T15:02:16.539Z,9.02
2019-02-20T15:04:44.546Z,8.96
2019-02-20T15:07:12.814Z,8.87
2019-02-20T15:09:41.248Z,8.89
2019-02-20T15:12:09.680Z,8.89
2019-02-20T15:14:37.943Z,8.94
2019-02-20T15:17:07.830Z,8.93
2019-02-20T15:19:36.150Z,8.96
2019-02-20T15:22:04.425Z,9.04
2019-02-20T15:24:32.687Z,9.12
2019-02-20T15:27:00.943Z,8.91
2019-02-20T15:29:29.483Z,8.79
2019-02-20T15:31:57.747Z,8.79
2019-02-20T15:34:26.034Z,8.71
2019-02-20T15:36:54.293Z,8.71
2019-02-20T15:39:22.554Z,8.65
2019-02-20T15:41:50.822Z,8.63
2019-02-20T15:44:19.091Z,8.62
2019-02-20T15:46:47.670Z,8.63
2019-02-20T15:49:15.908Z,8.63
2019-02-20T15:51:44.181Z,8.67
2019-02-20T15:54:12.448Z,8.69
2019-02-20T15:56:40.725Z,8.75
2019-02-20T15:59:09.008Z,8.74
2019-02-20T16:01:37.283Z,8.76
2019-02-20T16:04:05.733Z,8.73
2019-02-20T16:06:33.984Z,8.75
2019-02-20T16:09:02.254Z,8.69
2019-02-20T16:11:30.514Z,8.66
2019-02-20T16:13:58.783Z,8.65
2019-02-20T16:16:28.221Z,8.69
2019-02-20T16:18:56.583Z,8.66
2019-02-20T16:21:25.022Z,8.63
2019-02-20T16:23:53.288Z,8.65
2019-02-20T16:26:21.549Z,8.66
2019-02-20T16:28:49.816Z,8.69
2019-02-20T16:31:18.075Z,8.69
2019-02-20T16:33:46.448Z,8.68
2019-02-20T16:36:14.700Z,8.68
2019-02-20T16:38:43.151Z,8.70
2019-02-20T16:41:11.433Z,8.70
2019-02-20T16:43:40.364Z,8.73
2019-02-20T16:46:08.643Z,8.68
2019-02-20T16:48:36.902Z,8.73
2019-02-20T16:51:05.161Z,8.71
2019-02-20T16:53:33.414Z,8.73
2019-02-20T16:56:01.746Z,8.69
2019-02-20T16:58:30.026Z,8.73
2019-02-20T17:00:58.286Z,8.82
2019-02-20T17:03:26.583Z,8.75
2019-02-20T17:05:54.920Z,8.65
2019-02-20T17:08:23.195Z,8.61
2019-02-20T17:10:51.472Z,8.58
2019-02-20T17:13:19.718Z,8.53
2019-02-20T17:15:48.074Z,8.50
2019-02-20T17:18:16.337Z,8.45
2019-02-20T17:20:44.612Z,8.39
2019-02-20T17:23:13.523Z,8.43
2019-02-20T17:25:41.814Z,8.39
2019-02-20T17:28:10.390Z,8.39
2019-02-20T17:30:38.690Z,8.40
2019-02-20T17:33:06.974Z,8.37
2019-02-20T17:35:35.267Z,8.43
2019-02-20T17:38:03.523Z,8.40
2019-02-20T17:40:31.799Z,8.35
2019-02-20T17:43:00.074Z,8.41
2019-02-20T17:45:28.631Z,8.37
2019-02-20T17:47:56.893Z,8.35
2019-02-20T17:50:26.284Z,8.31
2019-02-20T17:52:54.556Z,8.32
2019-02-20T17:55:22.814Z,8.28
2019-02-20T17:57:51.098Z,8.27
2019-02-20T18:00:21.386Z,8.24
2019-02-20T18:02:49.603Z,8.25
2019-02-20T18:05:17.868Z,8.33
2019-02-20T18:07:49.644Z,8.32
2019-02-20T18:10:16.121Z,8.37
2019-02-20T18:12:44.385Z,8.37
2019-02-20T18:15:13.776Z,8.41
2019-02-20T18:17:42.136Z,8.43
2019-02-20T18:20:11.139Z,8.45
2019-02-20T18:22:39.427Z,8.44
2019-02-20T18:25:09.909Z,8.43
2019-02-20T18:27:38.286Z,8.44
2019-02-20T18:30:09.885Z,8.48
2019-02-20T18:32:38.138Z,8.48
2019-02-20T18:35:08.869Z,8.48
2019-02-20T18:37:37.130Z,8.50
2019-02-20T18:40:08.229Z,8.50
2019-02-20T18:42:36.473Z,8.44
2019-02-20T18:45:07.999Z,8.43
2019-02-20T18:47:36.283Z,8.37
2019-02-20T18:50:06.801Z,8.29
2019-02-20T18:52:35.058Z,8.24
2019-02-20T18:55:05.738Z,8.17
2019-02-20T18:57:33.320Z,8.17
2019-02-20T19:00:01.624Z,8.16
2019-02-20T19:02:29.856Z,8.26
2019-02-20T19:04:58.124Z,8.27
2019-02-20T19:07:26.394Z,8.26
2019-02-20T19:09:54.658Z,8.25
2019-02-20T19:12:34.636Z,8.30
2019-02-20T19:15:20.882Z,8.31
2019-02-20T19:18:10.231Z,8.35
2019-02-20T19:20:44.561Z,8.39
2019-02-20T19:23:30.460Z,8.41
2019-02-20T19:26:04.771Z,8.48
2019-02-20T19:28:44.482Z,8.47
2019-02-20T19:31:17.597Z,8.52
2019-02-20T19:33:54.599Z,8.52
2019-02-20T19:36:31.837Z,8.55
2019-02-20T19:39:33.096Z,8.57
2019-02-20T19:42:21.045Z,8.57
2019-02-20T19:45:01.326Z,8.55
2019-02-20T19:47:50.550Z,8.58
2019-02-20T19:50:36.911Z,8.60
2019-02-20T19:53:13.949Z,8.57
2019-02-20T19:55:48.306Z,8.56
2019-02-20T19:58:55.370Z,8.58
2019-02-20T20:01:52.920Z,8.62
2019-02-20T20:04:30.436Z,8.68
2019-02-20T20:07:17.795Z,8.60
2019-02-20T20:09:52.044Z,8.59
2019-02-20T20:12:29.307Z,8.62
2019-02-20T20:15:27.860Z,8.55
2019-02-20T20:18:15.765Z,8.57
2019-02-20T20:21:01.783Z,8.52
2019-02-20T20:23:51.078Z,8.56
2019-02-20T20:26:31.048Z,8.58
2019-02-20T20:29:06.191Z,8.58
2019-02-20T20:31:40.503Z,8.56
2019-02-20T20:34:17.663Z,8.58
2019-02-20T20:36:51.764Z,8.58
2019-02-20T20:39:31.989Z,8.58
2019-02-20T20:42:06.184Z,8.62
2019-02-20T20:44:58.141Z,8.58
2019-02-20T20:47:45.873Z,8.60
2019-02-20T20:50:29.281Z,8.60
2019-02-20T20:53:06.380Z,8.60
2019-02-20T20:55:40.324Z,8.56
2019-02-20T20:58:35.760Z,8.58
2019-02-20T21:01:26.297Z,8.61
2019-02-20T21:04:09.883Z,8.58
2019-02-20T21:06:41.325Z,8.60
2019-02-20T21:09:15.490Z,8.62
2019-02-20T21:12:12.486Z,8.66
2019-02-20T21:15:07.241Z,8.64
2019-02-20T21:17:58.069Z,8.65
2019-02-20T21:20:38.274Z,8.65
2019-02-20T21:23:15.446Z,8.70
2019-02-20T21:26:07.615Z,8.71
2019-02-20T21:29:01.263Z,8.77
2019-02-20T21:31:56.562Z,8.71
2019-02-20T21:34:44.222Z,8.71
2019-02-20T21:37:34.499Z,8.71
2019-02-20T21:40:30.581Z,8.71
2019-02-20T21:43:20.068Z,8.72
2019-02-20T21:46:19.709Z,8.70
2019-02-20T21:48:51.172Z,8.72
2019-02-20T21:51:22.610Z,8.68
2019-02-20T21:54:02.691Z,8.69
2019-02-20T21:56:39.617Z,8.67
2019-02-20T21:59:13.616Z,8.68
2019-02-20T22:01:50.553Z,8.67
2019-02-20T22:04:27.895Z,8.63
2019-02-20T22:07:02.132Z,8.63
2019-02-20T22:09:58.250Z,8.64
2019-02-20T22:12:30.113Z,8.61
2019-02-20T22:15:01.564Z,8.63
2019-02-20T22:17:44.792Z,8.61
2019-02-20T22:20:21.979Z,8.60
2019-02-20T22:23:08.138Z,8.62
2019-02-20T22:26:00.157Z,8.64
2019-02-20T22:28:43.253Z,8.60
2019-02-20T22:31:32.219Z,8.57
2019-02-20T22:34:23.004Z,8.59
2019-02-20T22:37:16.969Z,8.56
2019-02-20T22:39:51.073Z,8.55
2019-02-20T22:42:28.127Z,8.57
2019-02-20T22:45:05.135Z,8.53
2019-02-20T22:48:04.818Z,8.51
2019-02-20T22:50:53.951Z,8.52
2019-02-20T22:53:53.729Z,8.53
2019-02-20T22:56:33.980Z,8.47
2019-02-20T22:59:21.830Z,8.44
2019-02-20T23:01:59.061Z,8.50
2019-02-20T23:04:34.899Z,8.61
2019-02-20T23:07:22.810Z,8.53
2019-02-20T23:09:59.843Z,8.50
2019-02-20T23:12:46.042Z,8.48
2019-02-20T23:15:14.311Z,8.47
2019-02-20T23:17:42.584Z,8.49
2019-02-20T23:20:10.846Z,8.47
2019-02-20T23:22:39.109Z,8.40
2019-02-20T23:25:07.471Z,8.38
2019-02-20T23:27:35.766Z,8.37
2019-02-20T23:30:12.994Z,8.37
2019-02-20T23:32:36.131Z,8.34
2019-02-20T23:35:04.635Z,8.31
2019-02-20T23:37:32.916Z,8.31
2019-02-20T23:40:01.197Z,8.29
2019-02-20T23:42:29.479Z,8.25
2019-02-20T23:44:57.744Z,8.30
2019-02-20T23:47:26.016Z,8.29
2019-02-20T23:49:56.444Z,8.25
2019-02-20T23:52:24.303Z,8.21
2019-02-20T23:54:52.568Z,8.23
2019-02-20T23:57:20.832Z,8.21
2019-02-20T23:59:49.113Z,8.20
